createdAt,value
2018-03-31T00:02:16.148Z,1.10
2018-03-31T00:04:43.628Z,1.10
2018-03-31T00:07:10.677Z,1.10
2018-03-31T00:09:38.249Z,1.07
2018-03-31T00:12:05.973Z,1.07
2018-03-31T00:14:33.479Z,1.07
2018-03-31T00:17:01.004Z,1.07
2018-03-31T00:19:28.750Z,1.08
2018-03-31T00:21:55.830Z,1.07
2018-03-31T00:24:22.873Z,1.05
2018-03-31T00:26:49.984Z,1.06
2018-03-31T00:29:17.940Z,1.05
2018-03-31T00:31:44.941Z,1.04
2018-03-31T00:34:12.264Z,1.05
2018-03-31T00:36:39.319Z,1.06
2018-03-31T00:39:06.349Z,1.04
2018-03-31T00:41:33.349Z,1.07
2018-03-31T00:44:00.443Z,1.11
2018-03-31T00:46:27.490Z,1.15
2018-03-31T00:48:54.683Z,1.17
2018-03-31T00:51:22.647Z,1.20
2018-03-31T00:53:49.799Z,1.20
2018-03-31T00:56:16.882Z,1.22
2018-03-31T00:58:44.937Z,1.20
2018-03-31T01:01:13.049Z,1.20
2018-03-31T01:03:40.853Z,1.17
2018-03-31T01:06:08.067Z,1.16
2018-03-31T01:08:35.895Z,1.17
2018-03-31T01:11:02.987Z,1.18
2018-03-31T01:13:30.132Z,1.18
2018-03-31T01:15:57.366Z,1.18
2018-03-31T01:18:25.288Z,1.14
2018-03-31T01:20:52.639Z,1.15
2018-03-31T01:23:20.152Z,1.17
2018-03-31T01:25:47.275Z,1.18
2018-03-31T01:28:14.317Z,1.20
2018-03-31T01:30:42.080Z,1.15
2018-03-31T01:33:10.380Z,1.10
2018-03-31T01:35:37.505Z,1.08
2018-03-31T01:38:04.562Z,1.03
2018-03-31T01:40:31.615Z,1.02
2018-03-31T01:42:58.726Z,1.02
2018-03-31T01:45:25.826Z,1.01
2018-03-31T01:47:52.964Z,0.97
2018-03-31T01:50:21.227Z,0.94
2018-03-31T01:52:48.316Z,0.91
2018-03-31T01:55:16.210Z,0.91
2018-03-31T01:57:43.311Z,0.93
2018-03-31T02:00:10.824Z,0.93
2018-03-31T02:02:38.583Z,0.92
2018-03-31T02:05:05.620Z,0.91
2018-03-31T02:07:33.259Z,0.89
2018-03-31T02:10:00.822Z,0.86
2018-03-31T02:12:27.891Z,0.84
2018-03-31T02:14:55.282Z,0.80
2018-03-31T02:17:22.856Z,0.79
2018-03-31T02:19:50.345Z,0.77
2018-03-31T02:22:17.359Z,0.74
2018-03-31T02:24:45.117Z,0.71
2018-03-31T02:27:12.221Z,0.69
2018-03-31T02:29:40.064Z,0.70
2018-03-31T02:32:07.107Z,0.67
2018-03-31T02:34:34.337Z,0.65
2018-03-31T02:37:01.399Z,0.64
2018-03-31T02:39:28.530Z,0.64
2018-03-31T02:41:55.568Z,0.66
2018-03-31T02:44:22.687Z,0.66
2018-03-31T02:46:49.730Z,0.63
2018-03-31T02:49:16.771Z,0.62
2018-03-31T02:51:44.364Z,0.59
2018-03-31T02:54:11.389Z,0.56
2018-03-31T02:56:38.479Z,0.49
2018-03-31T02:59:06.284Z,0.44
2018-03-31T03:01:34.101Z,0.41
2018-03-31T03:04:01.824Z,0.38
2018-03-31T03:06:28.936Z,0.35
2018-03-31T03:08:56.767Z,0.26
2018-03-31T03:11:23.998Z,0.25
2018-03-31T03:13:51.041Z,0.21
2018-03-31T03:16:18.094Z,0.17
2018-03-31T03:18:45.684Z,0.12
2018-03-31T03:21:12.984Z,0.06
2018-03-31T03:23:40.594Z,-0.01
2018-03-31T03:26:07.666Z,-0.06
2018-03-31T03:28:34.752Z,-0.13
2018-03-31T03:31:02.580Z,-0.20
2018-03-31T03:33:29.685Z,-0.30
2018-03-31T03:35:56.733Z,-0.38
2018-03-31T03:38:23.865Z,-0.47
2018-03-31T03:40:50.980Z,-0.56
2018-03-31T03:43:18.207Z,-0.64
2018-03-31T03:45:45.421Z,-0.72
2018-03-31T03:48:12.803Z,-0.79
2018-03-31T03:50:40.876Z,-0.84
2018-03-31T03:53:07.940Z,-0.88
2018-03-31T03:55:34.995Z,-0.93
2018-03-31T03:58:02.119Z,-0.98
2018-03-31T04:00:30.013Z,-1.02
2018-03-31T04:02:57.991Z,-1.07
2018-03-31T04:05:25.219Z,-1.11
2018-03-31T04:07:52.389Z,-1.16
2018-03-31T04:10:20.311Z,-1.24
2018-03-31T04:12:47.432Z,-1.30
2018-03-31T04:15:15.156Z,-1.38
2018-03-31T04:17:44.373Z,-1.45
2018-03-31T04:20:12.281Z,-1.51
2018-03-31T04:22:39.984Z,-1.60
2018-03-31T04:25:07.267Z,-1.66
2018-03-31T04:27:34.418Z,-1.69
2018-03-31T04:30:02.181Z,-1.72
2018-03-31T04:32:29.296Z,-1.76
2018-03-31T04:34:56.433Z,-1.78
2018-03-31T04:37:23.630Z,-1.79
2018-03-31T04:39:50.749Z,-1.82
2018-03-31T04:42:17.828Z,-1.85
2018-03-31T04:44:44.979Z,-1.88
2018-03-31T04:47:12.052Z,-1.92
2018-03-31T04:49:39.893Z,-1.92
2018-03-31T04:52:07.041Z,-1.93
2018-03-31T04:54:34.141Z,-1.93
2018-03-31T04:57:01.301Z,-1.95
2018-03-31T04:59:28.916Z,-1.96
2018-03-31T05:01:56.766Z,-1.95
2018-03-31T05:04:24.734Z,-1.94
2018-03-31T05:06:51.986Z,-1.93
2018-03-31T05:09:19.733Z,-1.90
2018-03-31T05:11:46.836Z,-1.86
2018-03-31T05:14:14.008Z,-1.83
2018-03-31T05:16:41.097Z,-1.79
2018-03-31T05:19:09.125Z,-1.75
2018-03-31T05:21:36.189Z,-1.69
2018-03-31T05:24:04.116Z,-1.65
2018-03-31T05:26:31.278Z,-1.60
2018-03-31T05:28:58.834Z,-1.52
2018-03-31T05:31:26.654Z,-1.42
2018-03-31T05:33:54.117Z,-1.33
2018-03-31T05:36:21.372Z,-1.22
2018-03-31T05:38:48.558Z,-1.11
2018-03-31T05:41:16.346Z,-1.02
2018-03-31T05:43:43.683Z,-0.89
2018-03-31T05:46:10.980Z,-0.80
2018-03-31T05:48:38.001Z,-0.71
2018-03-31T05:51:06.932Z,-0.64
2018-03-31T05:53:34.234Z,-0.51
2018-03-31T05:56:02.745Z,-0.36
2018-03-31T05:58:30.497Z,-0.20
2018-03-31T06:00:58.168Z,-0.07
2018-03-31T06:03:25.865Z,0.05
2018-03-31T06:05:52.946Z,0.16
2018-03-31T06:08:20.836Z,0.17
2018-03-31T06:10:48.033Z,0.14
2018-03-31T06:13:15.187Z,0.19
2018-03-31T06:15:42.282Z,0.20
2018-03-31T06:18:10.228Z,0.17
2018-03-31T06:20:37.340Z,0.13
2018-03-31T06:23:05.270Z,0.14
2018-03-31T06:25:32.320Z,0.18
2018-03-31T06:27:59.480Z,0.25
2018-03-31T06:30:27.511Z,0.34
2018-03-31T06:32:54.593Z,0.41
2018-03-31T06:35:21.643Z,0.58
2018-03-31T06:37:48.680Z,0.76
2018-03-31T06:40:16.286Z,0.93
2018-03-31T06:42:43.848Z,1.08
2018-03-31T06:45:11.053Z,1.12
2018-03-31T06:47:39.133Z,1.24
2018-03-31T06:50:06.751Z,1.42
2018-03-31T06:52:33.934Z,1.59
2018-03-31T06:55:01.555Z,1.70
2018-03-31T06:57:28.644Z,1.75
2018-03-31T06:59:56.298Z,1.87
2018-03-31T07:02:23.302Z,1.95
2018-03-31T07:04:50.745Z,2.04
2018-03-31T07:07:17.737Z,2.17
2018-03-31T07:09:45.664Z,2.31
2018-03-31T07:12:12.665Z,2.43
2018-03-31T07:14:39.655Z,2.57
2018-03-31T07:17:07.329Z,2.64
2018-03-31T07:19:34.838Z,2.72
2018-03-31T07:22:01.824Z,2.75
2018-03-31T07:24:29.377Z,2.60
2018-03-31T07:26:56.365Z,2.57
2018-03-31T07:29:24.068Z,2.60
2018-03-31T07:31:51.061Z,2.53
2018-03-31T07:34:18.068Z,2.45
2018-03-31T07:36:45.459Z,2.43
2018-03-31T07:39:12.458Z,2.33
2018-03-31T07:41:39.477Z,2.27
2018-03-31T07:44:06.509Z,2.22
2018-03-31T07:46:33.535Z,2.22
2018-03-31T07:49:00.524Z,2.19
2018-03-31T07:51:28.312Z,2.10
2018-03-31T07:53:55.357Z,2.14
2018-03-31T07:56:22.352Z,2.16
2018-03-31T07:58:49.868Z,2.16
2018-03-31T08:01:17.645Z,2.27
2018-03-31T08:03:45.336Z,2.33
2018-03-31T08:06:12.341Z,2.43
2018-03-31T08:08:39.845Z,2.60
2018-03-31T08:11:06.804Z,2.66
2018-03-31T08:13:33.811Z,2.76
2018-03-31T08:16:00.848Z,2.80
2018-03-31T08:18:28.624Z,2.83
2018-03-31T08:20:55.654Z,2.87
2018-03-31T08:23:23.487Z,2.90
2018-03-31T08:25:50.506Z,2.89
2018-03-31T08:28:17.542Z,2.95
2018-03-31T08:30:45.322Z,3.03
2018-03-31T08:33:13.015Z,3.17
2018-03-31T08:35:40.005Z,3.35
2018-03-31T08:38:07.030Z,3.42
2018-03-31T08:40:34.069Z,3.42
2018-03-31T08:43:01.225Z,3.47
2018-03-31T08:45:28.216Z,3.45
2018-03-31T08:47:55.799Z,3.49
2018-03-31T08:50:23.594Z,3.56
2018-03-31T08:52:50.581Z,3.59
2018-03-31T08:55:17.609Z,3.60
2018-03-31T08:57:44.815Z,3.70
2018-03-31T09:00:12.419Z,3.71
2018-03-31T09:02:40.041Z,3.70
2018-03-31T09:05:07.062Z,3.65
2018-03-31T09:07:34.103Z,3.76
2018-03-31T09:10:01.130Z,3.85
2018-03-31T09:12:28.142Z,3.93
2018-03-31T09:14:55.229Z,4.00
2018-03-31T09:17:22.764Z,4.03
2018-03-31T09:19:50.465Z,4.10
2018-03-31T09:22:17.512Z,4.19
2018-03-31T09:24:46.099Z,4.25
2018-03-31T09:27:14.282Z,4.31
2018-03-31T09:29:42.124Z,4.28
2018-03-31T09:32:09.109Z,4.34
2018-03-31T09:34:36.096Z,4.40
2018-03-31T09:37:03.105Z,4.53
2018-03-31T09:39:30.109Z,4.66
2018-03-31T09:41:57.099Z,4.77
2018-03-31T09:44:24.291Z,4.89
2018-03-31T09:46:51.904Z,5.05
2018-03-31T09:49:19.279Z,5.02
2018-03-31T09:51:46.571Z,4.92
2018-03-31T09:54:13.629Z,4.72
2018-03-31T09:56:40.648Z,4.73
2018-03-31T09:59:08.057Z,4.74
2018-03-31T10:01:35.595Z,4.74
2018-03-31T10:04:03.320Z,4.75
2018-03-31T10:06:30.296Z,4.90
2018-03-31T10:08:57.302Z,5.01
2018-03-31T10:11:24.500Z,5.10
2018-03-31T10:13:51.494Z,5.20
2018-03-31T10:16:19.770Z,5.25
2018-03-31T10:18:48.664Z,5.30
2018-03-31T10:21:15.660Z,5.31
2018-03-31T10:23:43.516Z,5.37
2018-03-31T10:26:10.549Z,5.37
2018-03-31T10:28:37.575Z,5.51
2018-03-31T10:31:05.048Z,5.62
2018-03-31T10:33:32.049Z,5.77
2018-03-31T10:35:59.071Z,5.86
2018-03-31T10:38:26.088Z,6.01
2018-03-31T10:40:53.096Z,5.96
2018-03-31T10:43:20.101Z,5.84
2018-03-31T10:45:47.652Z,5.74
2018-03-31T10:48:16.019Z,5.64
2018-03-31T10:50:44.337Z,5.81
2018-03-31T10:53:11.804Z,5.83
2018-03-31T10:55:39.100Z,5.79
2018-03-31T10:58:06.105Z,5.82
2018-03-31T11:00:33.835Z,5.93
2018-03-31T11:03:01.606Z,6.07
2018-03-31T11:05:28.643Z,6.18
2018-03-31T11:07:55.653Z,6.15
2018-03-31T11:10:22.690Z,6.12
2018-03-31T11:12:49.771Z,6.11
2018-03-31T11:15:16.753Z,6.12
2018-03-31T11:17:44.395Z,6.25
2018-03-31T11:20:11.859Z,6.36
2018-03-31T11:22:39.603Z,6.36
2018-03-31T11:25:06.584Z,6.22
2018-03-31T11:27:33.560Z,6.13
2018-03-31T11:30:01.278Z,6.12
2018-03-31T11:32:28.261Z,6.14
2018-03-31T11:34:55.251Z,6.00
2018-03-31T11:37:22.272Z,6.01
2018-03-31T11:39:49.272Z,6.17
2018-03-31T11:42:16.938Z,6.30
2018-03-31T11:44:44.997Z,6.35
2018-03-31T11:47:12.001Z,6.43
2018-03-31T11:49:39.682Z,6.41
2018-03-31T11:52:06.720Z,6.35
2018-03-31T11:54:34.183Z,6.33
2018-03-31T11:57:01.181Z,6.29
2018-03-31T11:59:28.604Z,6.23
2018-03-31T12:01:56.061Z,6.18
2018-03-31T12:04:23.633Z,6.14
2018-03-31T12:06:50.861Z,6.01
2018-03-31T12:09:17.840Z,5.88
2018-03-31T12:11:44.876Z,5.82
2018-03-31T12:14:11.908Z,5.70
2018-03-31T12:16:39.708Z,5.59
2018-03-31T12:19:07.237Z,5.52
2018-03-31T12:21:34.220Z,5.59
2018-03-31T12:24:01.623Z,5.63
2018-03-31T12:26:28.612Z,5.65
2018-03-31T12:28:55.597Z,5.72
2018-03-31T12:31:23.100Z,5.77
2018-03-31T12:33:50.152Z,5.74
2018-03-31T12:36:17.842Z,5.84
2018-03-31T12:38:44.825Z,5.99
2018-03-31T12:41:12.580Z,6.02
2018-03-31T12:43:39.556Z,6.09
2018-03-31T12:46:06.552Z,6.20
2018-03-31T12:48:33.568Z,6.16
2018-03-31T12:51:01.692Z,6.10
2018-03-31T12:53:29.544Z,6.06
2018-03-31T12:55:57.265Z,6.10
2018-03-31T12:58:25.396Z,6.20
2018-03-31T13:00:52.992Z,6.23
2018-03-31T13:03:20.675Z,6.16
2018-03-31T13:05:47.675Z,6.05
2018-03-31T13:08:14.702Z,6.12
2018-03-31T13:10:41.707Z,6.14
2018-03-31T13:13:08.685Z,6.16
2018-03-31T13:15:35.667Z,6.15
2018-03-31T13:18:03.084Z,6.14
2018-03-31T13:20:30.580Z,6.20
2018-03-31T13:22:58.103Z,6.27
2018-03-31T13:25:25.087Z,6.30
2018-03-31T13:27:52.076Z,6.38
2018-03-31T13:30:19.618Z,6.49
2018-03-31T13:32:46.757Z,6.52
2018-03-31T13:35:15.266Z,6.49
2018-03-31T13:37:42.934Z,6.54
2018-03-31T13:40:09.922Z,6.62
2018-03-31T13:42:37.644Z,6.57
2018-03-31T13:45:04.644Z,6.48
2018-03-31T13:47:32.612Z,6.40
2018-03-31T13:50:00.243Z,6.29
2018-03-31T13:52:27.232Z,6.27
2018-03-31T13:54:54.898Z,6.36
2018-03-31T13:57:21.917Z,6.39
2018-03-31T13:59:49.549Z,6.37
2018-03-31T14:02:16.577Z,6.42
2018-03-31T14:04:44.003Z,6.41
2018-03-31T14:07:11.017Z,6.41
2018-03-31T14:09:37.992Z,6.48
2018-03-31T14:12:05.170Z,6.45
2018-03-31T14:14:32.181Z,6.39
2018-03-31T14:16:59.619Z,6.32
2018-03-31T14:19:27.104Z,6.18
2018-03-31T14:21:54.316Z,6.15
2018-03-31T14:24:21.928Z,6.14
2018-03-31T14:26:49.380Z,6.18
2018-03-31T14:29:17.588Z,6.25
2018-03-31T14:31:44.582Z,6.22
2018-03-31T14:34:11.576Z,6.20
2018-03-31T14:36:39.404Z,6.24
2018-03-31T14:39:06.383Z,6.25
2018-03-31T14:41:33.391Z,6.21
2018-03-31T14:44:00.408Z,6.17
2018-03-31T14:46:27.403Z,6.12
2018-03-31T14:48:54.802Z,6.15
2018-03-31T14:51:22.291Z,6.13
2018-03-31T14:53:49.353Z,6.14
2018-03-31T14:56:17.122Z,6.19
2018-03-31T14:58:44.886Z,6.28
2018-03-31T15:01:13.443Z,6.37
2018-03-31T15:03:41.165Z,6.33
2018-03-31T15:06:08.153Z,6.37
2018-03-31T15:08:35.149Z,6.35
2018-03-31T15:11:02.177Z,6.34
2018-03-31T15:13:29.727Z,6.33
2018-03-31T15:15:56.719Z,6.42
2018-03-31T15:18:24.743Z,6.61
2018-03-31T15:20:51.741Z,6.64
2018-03-31T15:23:19.330Z,6.52
2018-03-31T15:25:46.619Z,6.36
2018-03-31T15:28:13.593Z,6.20
2018-03-31T15:30:41.259Z,5.99
2018-03-31T15:33:08.679Z,5.84
2018-03-31T15:35:36.514Z,5.76
2018-03-31T15:38:03.514Z,5.70
2018-03-31T15:40:30.519Z,5.70
2018-03-31T15:42:57.543Z,5.76
2018-03-31T15:45:24.701Z,5.86
2018-03-31T15:47:51.883Z,5.92
2018-03-31T15:50:18.911Z,5.96
2018-03-31T15:52:46.107Z,5.95
2018-03-31T15:55:13.940Z,5.85
2018-03-31T15:57:40.916Z,5.71
2018-03-31T16:00:08.431Z,5.62
2018-03-31T16:02:36.183Z,5.52
2018-03-31T16:05:03.186Z,5.36
2018-03-31T16:07:30.176Z,5.29
2018-03-31T16:09:57.192Z,5.23
2018-03-31T16:12:25.223Z,5.41
2018-03-31T16:14:53.069Z,5.82
2018-03-31T16:17:20.793Z,6.23
2018-03-31T16:19:47.800Z,6.46
2018-03-31T16:22:14.801Z,6.54
2018-03-31T16:24:42.376Z,6.78
2018-03-31T16:27:09.408Z,6.91
2018-03-31T16:29:36.398Z,6.93
2018-03-31T16:32:04.023Z,7.01
2018-03-31T16:34:31.018Z,7.24
2018-03-31T16:36:58.936Z,7.43
2018-03-31T16:39:25.947Z,7.62
2018-03-31T16:41:52.962Z,7.69
2018-03-31T16:44:20.016Z,7.58
2018-03-31T16:46:47.079Z,7.52
2018-03-31T16:49:14.128Z,7.48
2018-03-31T16:51:41.936Z,7.30
2018-03-31T16:54:10.448Z,7.13
2018-03-31T16:56:37.434Z,6.90
2018-03-31T16:59:05.125Z,6.39
2018-03-31T17:01:32.471Z,5.91
2018-03-31T17:04:00.181Z,5.52
2018-03-31T17:06:27.168Z,5.25
2018-03-31T17:08:54.297Z,4.98
2018-03-31T17:11:21.330Z,4.70
2018-03-31T17:13:48.973Z,4.46
2018-03-31T17:16:17.868Z,4.25
2018-03-31T17:18:45.440Z,4.12
2018-03-31T17:21:12.457Z,3.96
2018-03-31T17:23:39.946Z,3.82
2018-03-31T17:26:06.940Z,3.71
2018-03-31T17:28:34.680Z,3.56
2018-03-31T17:31:02.416Z,3.44
2018-03-31T17:33:29.418Z,3.37
2018-03-31T17:35:57.116Z,3.30
2018-03-31T17:38:24.221Z,3.22
2018-03-31T17:40:51.220Z,3.15
2018-03-31T17:43:18.242Z,3.05
2018-03-31T17:45:46.085Z,2.96
2018-03-31T17:48:13.080Z,2.91
2018-03-31T17:50:40.425Z,2.85
2018-03-31T17:53:07.420Z,2.78
2018-03-31T17:55:34.929Z,2.71
2018-03-31T17:58:01.923Z,2.68
2018-03-31T18:00:30.499Z,2.65
2018-03-31T18:02:58.214Z,2.61
2018-03-31T18:05:25.887Z,2.53
2018-03-31T18:07:52.880Z,2.46
2018-03-31T18:10:19.897Z,2.39
2018-03-31T18:12:47.608Z,2.35
2018-03-31T18:15:14.628Z,2.29
2018-03-31T18:17:42.157Z,2.25
2018-03-31T18:20:09.153Z,2.23
2018-03-31T18:22:37.037Z,2.18
2018-03-31T18:25:04.254Z,2.15
2018-03-31T18:27:31.899Z,2.09
2018-03-31T18:29:58.906Z,2.06
2018-03-31T18:32:25.907Z,2.02
2018-03-31T18:34:53.638Z,2.00
2018-03-31T18:37:20.691Z,1.97
2018-03-31T18:39:47.702Z,1.94
2018-03-31T18:42:14.743Z,1.93
2018-03-31T18:44:41.801Z,1.91
2018-03-31T18:47:08.806Z,1.85
2018-03-31T18:49:35.845Z,1.80
2018-03-31T18:52:03.047Z,1.76
2018-03-31T18:54:30.999Z,1.74
2018-03-31T18:56:58.028Z,1.71
2018-03-31T18:59:25.669Z,1.69
2018-03-31T19:01:53.164Z,1.66
2018-03-31T19:04:20.694Z,1.64
2018-03-31T19:06:47.754Z,1.63
2018-03-31T19:11:42.067Z,1.58
2018-03-31T19:14:09.064Z,1.56
2018-03-31T19:16:42.562Z,1.52
2018-03-31T19:19:10.191Z,1.48
2018-03-31T19:21:37.185Z,1.44
2018-03-31T19:24:05.019Z,1.41
2018-03-31T19:26:32.012Z,1.37
2018-03-31T19:28:59.078Z,1.34
2018-03-31T19:31:26.113Z,1.32
2018-03-31T19:33:53.114Z,1.28
2018-03-31T19:36:20.861Z,1.27
2018-03-31T19:38:47.911Z,1.23
2018-03-31T19:41:15.038Z,1.18
2018-03-31T19:43:42.104Z,1.16
2018-03-31T19:46:09.150Z,1.13
2018-03-31T19:48:36.275Z,1.09
2018-03-31T19:51:03.376Z,1.05
2018-03-31T19:53:30.447Z,1.02
2018-03-31T19:55:58.490Z,0.99
2018-03-31T19:58:26.370Z,0.95
2018-03-31T20:00:55.794Z,0.92
2018-03-31T20:03:23.511Z,0.89
2018-03-31T20:05:50.497Z,0.85
2018-03-31T20:08:17.494Z,0.84
2018-03-31T20:10:44.597Z,0.86
2018-03-31T20:13:12.388Z,0.85
2018-03-31T20:15:40.125Z,0.84
2018-03-31T20:18:07.758Z,0.80
2018-03-31T20:20:35.309Z,0.79
2018-03-31T20:23:02.928Z,0.78
2018-03-31T20:25:29.989Z,0.76
2018-03-31T20:27:57.485Z,0.73
2018-03-31T20:30:24.555Z,0.68
2018-03-31T20:32:51.582Z,0.65
2018-03-31T20:35:20.801Z,0.63
2018-03-31T20:37:48.109Z,0.60
2018-03-31T20:40:15.104Z,0.57
2018-03-31T20:42:42.161Z,0.55
2018-03-31T20:45:09.153Z,0.53
2018-03-31T20:47:36.694Z,0.51
2018-03-31T20:50:03.726Z,0.48
2018-03-31T20:52:30.750Z,0.44
2018-03-31T20:54:58.436Z,0.43
2018-03-31T20:57:25.439Z,0.42
2018-03-31T20:59:53.279Z,0.42
2018-03-31T21:02:20.361Z,0.41
2018-03-31T21:04:47.883Z,0.40
2018-03-31T21:07:14.910Z,0.40
2018-03-31T21:09:41.916Z,0.38
2018-03-31T21:12:09.973Z,0.35
2018-03-31T21:14:36.964Z,0.33
2018-03-31T21:17:04.910Z,0.33
2018-03-31T21:19:32.418Z,0.32
2018-03-31T21:21:59.478Z,0.32
2018-03-31T21:24:27.053Z,0.31
2018-03-31T21:26:54.047Z,0.33
2018-03-31T21:29:21.096Z,0.34
2018-03-31T21:31:48.189Z,0.35
2018-03-31T21:34:15.265Z,0.37
2018-03-31T21:36:42.342Z,0.39
2018-03-31T21:39:09.669Z,0.42
2018-03-31T21:41:36.687Z,0.42
2018-03-31T21:44:03.865Z,0.43
2018-03-31T21:46:30.942Z,0.44
2018-03-31T21:48:58.056Z,0.47
2018-03-31T21:51:25.210Z,0.46
2018-03-31T21:53:53.070Z,0.49
2018-03-31T21:56:20.547Z,0.50
2018-03-31T21:58:48.226Z,0.51
2018-03-31T22:01:16.464Z,0.52
2018-03-31T22:03:44.046Z,0.55
2018-03-31T22:06:11.116Z,0.57
2018-03-31T22:08:38.103Z,0.53
2018-03-31T22:11:05.228Z,0.50
2018-03-31T22:13:38.552Z,0.47
2018-03-31T22:16:06.270Z,0.42
2018-03-31T22:18:34.018Z,0.38
2018-03-31T22:21:01.044Z,0.36
2018-03-31T22:23:28.952Z,0.32
2018-03-31T22:25:55.994Z,0.30
2018-03-31T22:28:23.016Z,0.24
2018-03-31T22:30:50.123Z,0.19
2018-03-31T22:33:17.949Z,0.15
2018-03-31T22:35:45.860Z,0.13
2018-03-31T22:38:12.968Z,0.11
2018-03-31T22:40:40.001Z,0.06
2018-03-31T22:43:07.062Z,0.00
2018-03-31T22:45:34.440Z,-0.03
2018-03-31T22:48:01.522Z,-0.04
2018-03-31T22:50:28.693Z,-0.04
2018-03-31T22:52:55.763Z,-0.04
2018-03-31T22:55:23.346Z,-0.08
2018-03-31T22:57:50.762Z,-0.09
2018-03-31T23:00:19.323Z,-0.09
2018-03-31T23:02:47.273Z,-0.11
2018-03-31T23:05:14.445Z,-0.11
2018-03-31T23:07:41.455Z,-0.11
2018-03-31T23:10:08.943Z,-0.14
2018-03-31T23:12:36.569Z,-0.15
2018-03-31T23:15:04.101Z,-0.18
2018-03-31T23:17:31.728Z,-0.20
2018-03-31T23:19:58.832Z,-0.22
2018-03-31T23:22:26.500Z,-0.22
2018-03-31T23:24:54.208Z,-0.24
2018-03-31T23:27:21.573Z,-0.27
2018-03-31T23:29:48.774Z,-0.27
2018-03-31T23:32:15.847Z,-0.28
2018-03-31T23:34:43.150Z,-0.28
2018-03-31T23:37:10.268Z,-0.28
2018-03-31T23:39:37.472Z,-0.30
2018-03-31T23:42:04.470Z,-0.31
2018-03-31T23:44:31.536Z,-0.32
2018-03-31T23:46:58.629Z,-0.29
2018-03-31T23:49:26.814Z,-0.27
2018-03-31T23:51:53.860Z,-0.26
2018-03-31T23:54:21.993Z,-0.24
2018-03-31T23:56:48.984Z,-0.21
2018-03-31T23:59:16.597Z,-0.17
